createdAt,value
2019-02-06T00:01:39.374Z,12.13
2019-02-06T00:04:07.748Z,12.43
2019-02-06T00:06:36.424Z,11.83
2019-02-06T00:09:09.599Z,12.53
2019-02-06T00:11:37.927Z,12.00
2019-02-06T00:14:06.354Z,12.33
2019-02-06T00:16:34.718Z,12.63
2019-02-06T00:19:03.630Z,12.20
2019-02-06T00:21:31.975Z,13.20
2019-02-06T00:24:00.368Z,13.53
2019-02-06T00:26:28.755Z,13.37
2019-02-06T00:28:57.137Z,13.90
2019-02-06T00:31:25.657Z,14.20
2019-02-06T00:33:54.007Z,14.37
2019-02-06T00:36:22.399Z,14.97
2019-02-06T00:38:51.175Z,14.40
2019-02-06T00:41:19.570Z,14.77
2019-02-06T00:43:47.980Z,14.47
2019-02-06T00:46:16.748Z,14.80
2019-02-06T00:48:45.115Z,15.03
2019-02-06T00:51:13.511Z,16.23
2019-02-06T00:53:41.877Z,15.90
2019-02-06T00:56:10.288Z,16.70
2019-02-06T00:58:38.657Z,18.37
2019-02-06T01:01:07.027Z,18.70
2019-02-06T01:03:35.490Z,19.20
2019-02-06T01:06:04.237Z,19.20
2019-02-06T01:08:32.615Z,19.20
2019-02-06T01:11:01.368Z,19.80
2019-02-06T01:13:29.726Z,21.90
2019-02-06T01:15:58.113Z,21.13
2019-02-06T01:18:26.493Z,22.13
2019-02-06T01:20:54.904Z,24.70
2019-02-06T01:23:23.600Z,25.23
2019-02-06T01:25:52.023Z,27.40
2019-02-06T01:28:21.165Z,26.90
2019-02-06T01:30:51.481Z,26.70
2019-02-06T01:33:19.881Z,27.40
2019-02-06T01:35:50.177Z,26.13
2019-02-06T01:38:18.297Z,27.97
2019-02-06T01:40:47.033Z,26.63
2019-02-06T01:43:15.406Z,27.10
2019-02-06T01:45:43.884Z,27.37
2019-02-06T01:48:12.256Z,28.93
2019-02-06T01:50:40.664Z,29.10
2019-02-06T01:53:09.028Z,29.70
2019-02-06T01:55:37.388Z,28.23
2019-02-06T01:58:05.760Z,32.63
2019-02-06T02:00:34.523Z,32.30
2019-02-06T02:03:02.923Z,32.97
2019-02-06T02:05:31.721Z,34.77
2019-02-06T02:08:00.082Z,36.23
2019-02-06T02:10:28.466Z,35.90
2019-02-06T02:12:56.848Z,35.87
2019-02-06T02:15:25.253Z,36.23
2019-02-06T02:17:53.974Z,36.50
2019-02-06T02:20:24.994Z,35.00
2019-02-06T02:22:53.380Z,34.37
2019-02-06T02:25:21.738Z,36.73
2019-02-06T02:27:50.141Z,38.43
2019-02-06T02:30:23.006Z,32.07
2019-02-06T02:32:51.676Z,35.50
2019-02-06T02:35:20.019Z,32.67
2019-02-06T02:37:48.351Z,34.63
2019-02-06T02:40:17.044Z,34.03
2019-02-06T02:42:45.429Z,34.63
2019-02-06T02:45:15.948Z,31.20
2019-02-06T02:47:44.702Z,35.50
2019-02-06T02:50:13.078Z,36.83
2019-02-06T02:52:41.466Z,38.27
2019-02-06T02:55:29.719Z,35.90
2019-02-06T02:57:58.113Z,37.50
2019-02-06T03:00:28.429Z,34.07
2019-02-06T03:03:01.603Z,35.73
2019-02-06T03:05:31.539Z,35.30
2019-02-06T03:07:59.912Z,35.77
2019-02-06T03:10:28.308Z,32.43
2019-02-06T03:12:56.669Z,36.67
2019-02-06T03:15:25.370Z,36.50
2019-02-06T03:17:53.740Z,34.93
2019-02-06T03:20:22.083Z,36.13
2019-02-06T03:22:50.461Z,37.00
2019-02-06T03:25:18.876Z,38.57
2019-02-06T03:27:47.273Z,39.13
2019-02-06T03:30:17.950Z,40.10
2019-02-06T03:32:46.346Z,37.13
2019-02-06T03:35:14.783Z,42.23
2019-02-06T03:37:43.153Z,37.73
2019-02-06T03:40:18.723Z,36.73
2019-02-06T03:42:47.107Z,36.27
2019-02-06T03:45:16.268Z,35.57
2019-02-06T03:47:44.657Z,34.87
2019-02-06T03:50:16.022Z,35.77
2019-02-06T03:52:44.410Z,35.77
2019-02-06T03:55:13.058Z,37.53
2019-02-06T03:57:41.447Z,36.87
2019-02-06T04:00:15.493Z,38.70
2019-02-06T04:02:43.895Z,38.10
2019-02-06T04:05:12.887Z,37.17
2019-02-06T04:07:41.273Z,36.77
2019-02-06T04:10:15.507Z,38.40
2019-02-06T04:12:43.884Z,37.20
2019-02-06T04:15:12.571Z,37.93
2019-02-06T04:17:40.909Z,36.60
2019-02-06T04:20:11.300Z,36.07
2019-02-06T04:22:40.106Z,36.43
2019-02-06T04:25:09.521Z,37.07
2019-02-06T04:27:37.900Z,34.83
2019-02-06T04:30:09.602Z,35.90
2019-02-06T04:32:37.970Z,35.90
2019-02-06T04:35:08.701Z,37.63
2019-02-06T04:37:37.023Z,36.53
2019-02-06T04:40:08.662Z,36.37
2019-02-06T04:42:37.029Z,35.60
2019-02-06T04:45:08.226Z,36.03
2019-02-06T04:47:36.631Z,34.10
2019-02-06T04:50:07.943Z,36.03
2019-02-06T04:52:36.367Z,36.27
2019-02-06T04:55:07.305Z,32.03
2019-02-06T04:57:35.681Z,28.47
2019-02-06T05:00:07.733Z,31.07
2019-02-06T05:02:36.110Z,32.53
2019-02-06T05:05:05.953Z,31.20
2019-02-06T05:07:34.316Z,31.50
2019-02-06T05:10:03.002Z,31.70
2019-02-06T05:12:31.416Z,32.97
2019-02-06T05:15:00.328Z,33.53
2019-02-06T05:17:28.743Z,31.13
2019-02-06T05:19:57.124Z,36.63
2019-02-06T05:22:25.551Z,33.30
2019-02-06T05:24:53.927Z,32.33
2019-02-06T05:27:22.302Z,33.10
2019-02-06T05:29:50.701Z,33.10
2019-02-06T05:32:19.371Z,33.53
2019-02-06T05:34:47.753Z,34.40
2019-02-06T05:37:16.446Z,33.30
2019-02-06T05:39:44.823Z,29.30
2019-02-06T05:42:13.215Z,27.40
2019-02-06T05:44:41.883Z,31.63
2019-02-06T05:47:10.294Z,32.50
2019-02-06T05:49:38.981Z,34.20
2019-02-06T05:52:07.832Z,37.67
2019-02-06T05:54:36.223Z,35.07
2019-02-06T05:57:04.645Z,37.23
2019-02-06T05:59:33.003Z,34.80
2019-02-06T06:02:01.364Z,34.30
2019-02-06T06:04:29.642Z,31.77
2019-02-06T06:06:58.700Z,34.40
2019-02-06T06:09:27.493Z,33.17
2019-02-06T06:11:55.900Z,36.03
2019-02-06T06:14:24.275Z,38.17
2019-02-06T06:16:52.705Z,31.97
2019-02-06T06:19:21.097Z,36.67
2019-02-06T06:21:49.473Z,40.13
2019-02-06T06:24:18.281Z,39.57
2019-02-06T06:26:46.673Z,38.27
2019-02-06T06:29:15.059Z,40.20
2019-02-06T06:31:43.461Z,37.23
2019-02-06T06:34:11.853Z,40.07
2019-02-06T06:36:40.257Z,38.40
2019-02-06T06:39:08.672Z,35.57
2019-02-06T06:41:37.318Z,36.07
2019-02-06T06:44:05.893Z,36.00
2019-02-06T06:46:34.264Z,37.73
2019-02-06T06:49:03.691Z,37.83
2019-02-06T06:51:32.057Z,36.40
2019-02-06T06:54:00.431Z,34.57
2019-02-06T06:56:28.820Z,33.40
2019-02-06T06:58:57.196Z,33.97
2019-02-06T07:01:25.607Z,33.67
2019-02-06T07:03:54.402Z,31.87
2019-02-06T07:06:22.796Z,33.47
2019-02-06T07:08:51.130Z,30.60
2019-02-06T07:11:19.472Z,32.33
2019-02-06T07:13:48.193Z,32.37
2019-02-06T07:16:16.590Z,29.50
2019-02-06T07:18:44.987Z,31.63
2019-02-06T07:21:13.369Z,28.73
2019-02-06T07:23:41.689Z,29.37
2019-02-06T07:26:10.052Z,28.67
2019-02-06T07:28:38.443Z,28.10
2019-02-06T07:31:06.906Z,28.70
2019-02-06T07:33:35.314Z,25.83
2019-02-06T07:36:03.752Z,27.00
2019-02-06T07:38:32.162Z,24.93
2019-02-06T07:41:00.952Z,25.53
2019-02-06T07:43:29.347Z,24.50
2019-02-06T07:45:57.733Z,25.53
2019-02-06T07:48:26.086Z,23.10
2019-02-06T07:50:54.430Z,23.80
2019-02-06T07:53:22.798Z,25.70
2019-02-06T07:55:51.204Z,24.90
2019-02-06T07:58:19.573Z,22.30
2019-02-06T08:00:48.342Z,22.83
2019-02-06T08:03:17.192Z,23.37
2019-02-06T08:05:45.533Z,22.93
2019-02-06T08:08:13.884Z,23.70
2019-02-06T08:10:42.261Z,23.50
2019-02-06T08:13:10.676Z,22.83
2019-02-06T08:15:39.062Z,23.00
2019-02-06T08:18:07.424Z,23.97
2019-02-06T08:20:36.636Z,22.27
2019-02-06T08:23:05.011Z,22.60
2019-02-06T08:25:33.427Z,21.13
2019-02-06T08:28:02.175Z,21.17
2019-02-06T08:30:39.300Z,20.10
2019-02-06T08:33:07.661Z,22.07
2019-02-06T08:35:36.420Z,22.50
2019-02-06T08:38:05.143Z,22.17
2019-02-06T08:40:33.554Z,20.73
2019-02-06T08:43:01.925Z,19.23
2019-02-06T08:45:30.321Z,19.50
2019-02-06T08:47:59.004Z,19.43
2019-02-06T08:50:27.709Z,20.00
2019-02-06T08:52:56.105Z,21.37
2019-02-06T08:55:32.361Z,20.67
2019-02-06T08:58:01.083Z,20.67
2019-02-06T09:00:35.242Z,20.27
2019-02-06T09:03:03.683Z,19.23
2019-02-06T09:05:32.032Z,18.10
2019-02-06T09:08:00.611Z,19.27
2019-02-06T09:10:30.318Z,20.40
2019-02-06T09:12:59.424Z,19.83
2019-02-06T09:15:28.125Z,20.20
2019-02-06T09:17:56.499Z,20.27
2019-02-06T09:20:26.563Z,19.10
2019-02-06T09:22:54.925Z,18.17
2019-02-06T09:25:28.179Z,20.67
2019-02-06T09:27:57.028Z,18.10
2019-02-06T09:30:30.917Z,18.20
2019-02-06T09:32:59.310Z,19.03
2019-02-06T09:35:28.054Z,19.33
2019-02-06T09:37:56.399Z,19.13
2019-02-06T09:40:26.818Z,18.63
2019-02-06T09:42:55.192Z,18.43
2019-02-06T09:45:23.571Z,17.63
2019-02-06T09:47:51.944Z,16.87
2019-02-06T09:50:32.102Z,18.87
2019-02-06T09:53:00.440Z,18.80
2019-02-06T09:55:28.859Z,17.43
2019-02-06T09:57:57.224Z,18.10
2019-02-06T10:00:31.199Z,16.70
2019-02-06T10:02:59.615Z,17.03
2019-02-06T10:05:28.073Z,17.90
2019-02-06T10:07:56.466Z,15.43
2019-02-06T10:10:26.303Z,16.30
2019-02-06T10:12:54.680Z,16.03
2019-02-06T10:15:28.413Z,15.00
2019-02-06T10:17:57.033Z,14.73
2019-02-06T10:20:28.151Z,16.93
2019-02-06T10:22:56.840Z,16.37
2019-02-06T10:25:25.246Z,16.73
2019-02-06T10:27:53.616Z,15.90
2019-02-06T10:30:33.654Z,16.50
2019-02-06T10:33:02.432Z,15.27
2019-02-06T10:35:30.815Z,17.10
2019-02-06T10:37:59.176Z,16.67
2019-02-06T10:40:27.582Z,16.67
2019-02-06T10:42:56.344Z,15.33
2019-02-06T10:45:24.706Z,16.13
2019-02-06T10:47:53.439Z,16.30
2019-02-06T10:50:24.600Z,17.20
2019-02-06T10:52:53.330Z,18.33
2019-02-06T10:55:21.708Z,16.57
2019-02-06T10:57:50.119Z,16.40
2019-02-06T11:00:21.748Z,16.37
2019-02-06T11:02:50.132Z,15.63
2019-02-06T11:05:18.535Z,15.80
2019-02-06T11:07:46.892Z,17.20
2019-02-06T11:10:18.567Z,17.37
2019-02-06T11:12:46.950Z,17.73
2019-02-06T11:15:15.770Z,17.00
2019-02-06T11:17:44.162Z,17.70
2019-02-06T11:20:23.870Z,17.53
2019-02-06T11:22:52.250Z,17.60
2019-02-06T11:25:20.704Z,17.60
2019-02-06T11:27:49.100Z,16.77
2019-02-06T11:30:27.106Z,17.10
2019-02-06T11:32:55.470Z,16.97
2019-02-06T11:35:23.798Z,17.90
2019-02-06T11:37:52.118Z,17.50
2019-02-06T11:40:23.187Z,16.90
2019-02-06T11:42:51.930Z,16.97
2019-02-06T11:45:29.104Z,17.23
2019-02-06T11:47:57.474Z,17.90
2019-02-06T11:50:36.388Z,16.97
2019-02-06T11:53:05.996Z,16.90
2019-02-06T11:55:34.388Z,16.00
2019-02-06T11:58:02.837Z,17.57
2019-02-06T12:00:48.525Z,17.60
2019-02-06T12:03:17.188Z,18.80
2019-02-06T12:05:45.560Z,17.33
2019-02-06T12:08:13.941Z,18.10
2019-02-06T12:10:42.345Z,17.50
2019-02-06T12:13:10.716Z,17.17
2019-02-06T12:15:39.116Z,17.63
2019-02-06T12:18:07.590Z,16.53
2019-02-06T12:20:36.392Z,17.97
2019-02-06T12:23:05.084Z,18.37
2019-02-06T12:25:34.605Z,17.70
2019-02-06T12:28:05.122Z,19.43
2019-02-06T12:30:35.461Z,17.87
2019-02-06T12:33:04.095Z,17.23
2019-02-06T12:35:32.502Z,18.10
2019-02-06T12:38:00.953Z,17.13
2019-02-06T12:40:29.357Z,18.97
2019-02-06T12:42:57.730Z,18.30
2019-02-06T12:45:26.189Z,19.97
2019-02-06T12:47:54.816Z,21.20
2019-02-06T12:50:24.322Z,21.40
2019-02-06T12:52:52.712Z,22.93
2019-02-06T12:55:35.671Z,23.73
2019-02-06T12:58:04.514Z,21.53
2019-02-06T13:00:35.511Z,24.33
2019-02-06T13:03:03.920Z,23.07
2019-02-06T13:05:32.336Z,23.67
2019-02-06T13:08:00.740Z,22.27
2019-02-06T13:10:34.167Z,24.93
2019-02-06T13:12:59.157Z,24.17
2019-02-06T13:15:27.547Z,24.80
2019-02-06T13:17:56.260Z,22.43
2019-02-06T13:20:34.036Z,23.97
2019-02-06T13:23:21.894Z,23.27
2019-02-06T13:25:50.283Z,24.47
2019-02-06T13:28:18.663Z,24.10
2019-02-06T13:30:47.031Z,24.00
2019-02-06T13:33:15.445Z,23.00
2019-02-06T13:35:44.271Z,22.80
2019-02-06T13:38:12.633Z,21.53
2019-02-06T13:40:45.867Z,20.13
2019-02-06T13:43:11.355Z,21.97
2019-02-06T13:45:42.480Z,23.60
2019-02-06T13:48:10.898Z,22.50
2019-02-06T13:50:39.248Z,20.13
2019-02-06T13:53:07.697Z,19.27
2019-02-06T13:55:36.124Z,17.67
2019-02-06T13:58:04.935Z,17.67
2019-02-06T14:00:35.741Z,16.90
2019-02-06T14:03:04.215Z,15.90
2019-02-06T14:05:32.643Z,16.47
2019-02-06T14:08:03.586Z,16.33
2019-02-06T14:10:32.427Z,17.07
2019-02-06T14:13:01.226Z,17.27
2019-02-06T14:15:35.711Z,17.73
2019-02-06T14:18:04.121Z,19.10
2019-02-06T14:20:32.478Z,20.23
2019-02-06T14:23:06.971Z,21.37
2019-02-06T14:25:53.520Z,23.77
2019-02-06T14:28:49.581Z,23.03
2019-02-06T14:31:33.083Z,25.07
2019-02-06T14:34:22.434Z,24.80
2019-02-06T14:37:08.452Z,24.37
2019-02-06T14:39:45.721Z,24.47
2019-02-06T14:42:26.230Z,24.70
2019-02-06T14:45:20.816Z,25.77
2019-02-06T14:47:55.004Z,23.57
2019-02-06T14:50:29.211Z,23.53
2019-02-06T14:53:18.969Z,25.83
2019-02-06T14:56:05.382Z,24.37
2019-02-06T14:58:52.001Z,24.57
2019-02-06T15:01:35.771Z,23.47
2019-02-06T15:04:24.013Z,23.77
2019-02-06T15:07:11.030Z,24.97
2019-02-06T15:09:48.412Z,25.77
2019-02-06T15:12:20.066Z,24.03
2019-02-06T15:14:54.708Z,25.10
2019-02-06T15:17:58.187Z,24.13
2019-02-06T15:20:38.683Z,24.37
2019-02-06T15:23:32.304Z,22.20
2019-02-06T15:26:01.125Z,22.83
2019-02-06T15:28:35.889Z,21.10
2019-02-06T15:31:25.764Z,20.63
2019-02-06T15:33:57.514Z,19.73
2019-02-06T15:36:29.540Z,20.90
2019-02-06T15:39:19.095Z,19.87
2019-02-06T15:42:03.017Z,20.83
2019-02-06T15:44:34.670Z,20.07
2019-02-06T15:47:09.729Z,19.23
2019-02-06T15:49:47.316Z,21.07
2019-02-06T15:52:36.815Z,20.63
2019-02-06T15:55:25.239Z,20.07
2019-02-06T15:58:28.614Z,20.17
2019-02-06T16:01:17.111Z,19.63
2019-02-06T16:04:37.616Z,21.23
2019-02-06T16:07:28.654Z,20.93
2019-02-06T16:10:24.985Z,20.13
2019-02-06T16:13:05.336Z,20.70
2019-02-06T16:15:45.250Z,21.13
2019-02-06T16:18:41.355Z,21.87
2019-02-06T16:21:33.484Z,23.97
2019-02-06T16:24:16.715Z,22.53
2019-02-06T16:27:09.846Z,22.53
2019-02-06T16:30:00.149Z,24.50
2019-02-06T16:32:29.548Z,23.90
2019-02-06T16:35:01.156Z,24.53
2019-02-06T16:37:47.890Z,26.43
2019-02-06T16:40:45.760Z,24.10
2019-02-06T16:43:26.380Z,24.57
2019-02-06T16:46:03.783Z,25.10
2019-02-06T16:48:35.479Z,26.50
2019-02-06T16:51:09.875Z,29.33
2019-02-06T16:54:00.142Z,25.87
2019-02-06T16:56:37.369Z,23.70
2019-02-06T16:59:21.088Z,25.17
2019-02-06T17:01:55.632Z,25.40
2019-02-06T17:04:36.141Z,27.53
2019-02-06T17:07:30.555Z,24.80
2019-02-06T17:10:13.551Z,26.53
2019-02-06T17:12:50.972Z,25.63
2019-02-06T17:15:29.283Z,25.20
2019-02-06T17:18:09.342Z,25.97
2019-02-06T17:20:59.077Z,26.17
2019-02-06T17:23:47.822Z,25.67
2019-02-06T17:26:34.504Z,27.10
2019-02-06T17:29:17.986Z,27.47
2019-02-06T17:32:07.569Z,28.87
2019-02-06T17:34:47.779Z,27.67
2019-02-06T17:37:31.289Z,28.17
2019-02-06T17:40:24.020Z,29.00
2019-02-06T17:43:07.719Z,29.10
2019-02-06T17:45:51.420Z,28.27
2019-02-06T17:48:32.282Z,30.73
2019-02-06T17:51:26.431Z,31.73
2019-02-06T17:54:00.782Z,29.67
2019-02-06T17:56:29.157Z,33.10
2019-02-06T17:58:57.487Z,31.03
2019-02-06T18:01:28.387Z,30.87
2019-02-06T18:03:57.459Z,31.27
2019-02-06T18:06:25.754Z,30.63
2019-02-06T18:08:56.951Z,28.63
2019-02-06T18:11:24.304Z,29.83
2019-02-06T18:13:52.668Z,27.50
2019-02-06T18:16:21.633Z,27.87
2019-02-06T18:18:50.145Z,28.90
2019-02-06T18:21:18.580Z,29.17
2019-02-06T18:23:46.947Z,29.27
2019-02-06T18:26:15.335Z,28.17
2019-02-06T18:28:43.729Z,26.77
2019-02-06T18:31:12.405Z,26.33
2019-02-06T18:33:41.163Z,24.33
2019-02-06T18:36:09.562Z,24.80
2019-02-06T18:38:46.300Z,25.63
2019-02-06T18:41:09.434Z,24.20
2019-02-06T18:43:37.798Z,24.50
2019-02-06T18:46:06.150Z,24.40
2019-02-06T18:48:34.932Z,24.07
2019-02-06T18:51:03.373Z,25.83
2019-02-06T18:53:32.165Z,25.80
2019-02-06T18:56:00.536Z,26.07
2019-02-06T18:58:28.938Z,24.97
2019-02-06T19:00:57.330Z,25.07
2019-02-06T19:03:31.884Z,26.07
2019-02-06T19:06:00.299Z,24.43
2019-02-06T19:08:28.977Z,22.80
2019-02-06T19:10:57.679Z,23.60
2019-02-06T19:13:26.068Z,24.43
2019-02-06T19:15:56.599Z,22.40
2019-02-06T19:18:24.861Z,24.67
2019-02-06T19:20:53.241Z,23.47
2019-02-06T19:23:21.618Z,26.87
2019-02-06T19:25:50.007Z,22.87
2019-02-06T19:28:18.777Z,24.93
2019-02-06T19:30:47.169Z,22.53
2019-02-06T19:33:17.235Z,23.17
2019-02-06T19:35:46.012Z,23.27
2019-02-06T19:38:14.375Z,23.63
2019-02-06T19:40:42.754Z,21.70
2019-02-06T19:43:11.248Z,23.20
2019-02-06T19:45:40.022Z,22.00
2019-02-06T19:48:15.628Z,22.67
2019-02-06T19:50:43.232Z,21.67
2019-02-06T19:53:11.903Z,21.20
2019-02-06T19:55:40.282Z,23.00
2019-02-06T19:58:09.953Z,21.47
2019-02-06T20:00:38.327Z,21.73
2019-02-06T20:03:08.219Z,21.43
2019-02-06T20:05:36.874Z,22.77
2019-02-06T20:08:06.507Z,22.23
2019-02-06T20:10:46.752Z,20.57
2019-02-06T20:13:15.145Z,21.00
2019-02-06T20:15:43.527Z,22.17
2019-02-06T20:18:12.243Z,20.63
2019-02-06T20:20:40.603Z,20.97
2019-02-06T20:23:08.997Z,21.57
2019-02-06T20:25:37.362Z,23.10
2019-02-06T20:28:05.734Z,21.20
2019-02-06T20:30:34.328Z,22.23
2019-02-06T20:33:02.698Z,21.97
2019-02-06T20:35:31.222Z,21.47
2019-02-06T20:37:59.592Z,19.97
2019-02-06T20:40:36.769Z,20.20
2019-02-06T20:43:05.347Z,20.37
2019-02-06T20:45:33.766Z,19.57
2019-02-06T20:48:02.131Z,21.60
2019-02-06T20:50:32.926Z,22.10
2019-02-06T20:53:01.579Z,21.60
2019-02-06T20:55:29.988Z,22.80
2019-02-06T20:57:58.370Z,21.67
2019-02-06T21:00:31.418Z,21.57
2019-02-06T21:02:59.802Z,22.57
2019-02-06T21:05:28.182Z,21.93
2019-02-06T21:07:56.595Z,21.83
2019-02-06T21:10:32.650Z,23.23
2019-02-06T21:13:01.084Z,23.03
2019-02-06T21:15:29.468Z,22.70
2019-02-06T21:17:57.833Z,22.30
2019-02-06T21:20:26.227Z,22.90
2019-02-06T21:22:54.608Z,23.43
2019-02-06T21:25:24.562Z,23.57
2019-02-06T21:27:52.951Z,24.77
2019-02-06T21:30:38.709Z,23.47
2019-02-06T21:33:07.331Z,25.00
2019-02-06T21:35:35.710Z,23.53
2019-02-06T21:38:04.127Z,23.70
2019-02-06T21:40:34.757Z,24.17
2019-02-06T21:43:03.133Z,22.10
2019-02-06T21:45:31.551Z,23.33
2019-02-06T21:47:59.927Z,22.73
2019-02-06T21:50:28.337Z,23.33
2019-02-06T21:52:56.983Z,21.73
2019-02-06T21:55:26.536Z,21.87
2019-02-06T21:57:54.904Z,19.23
2019-02-06T22:00:35.378Z,21.20
2019-02-06T22:03:03.748Z,20.77
2019-02-06T22:05:32.404Z,19.23
2019-02-06T22:08:00.801Z,19.50
2019-02-06T22:10:29.181Z,18.90
2019-02-06T22:12:57.557Z,18.03
2019-02-06T22:15:31.121Z,17.93
2019-02-06T22:17:59.497Z,17.50
2019-02-06T22:20:28.205Z,19.07
2019-02-06T22:22:56.930Z,17.93
2019-02-06T22:25:25.313Z,16.37
2019-02-06T22:27:53.703Z,17.37
2019-02-06T22:30:24.002Z,15.77
2019-02-06T22:32:52.421Z,15.73
2019-02-06T22:35:21.086Z,16.77
2019-02-06T22:37:49.445Z,16.50
2019-02-06T22:40:20.326Z,16.33
2019-02-06T22:42:48.661Z,17.17
2019-02-06T22:45:25.333Z,16.10
2019-02-06T22:47:53.709Z,16.70
2019-02-06T22:50:24.228Z,16.30
2019-02-06T22:52:52.552Z,17.50
2019-02-06T22:55:20.938Z,16.43
2019-02-06T22:57:49.320Z,15.53
2019-02-06T23:00:51.515Z,17.13
2019-02-06T23:03:31.712Z,16.60
2019-02-06T23:06:00.142Z,15.37
2019-02-06T23:08:28.514Z,16.17
2019-02-06T23:10:57.297Z,16.20
2019-02-06T23:13:25.677Z,15.87
2019-02-06T23:15:54.073Z,16.17
2019-02-06T23:18:22.457Z,15.43
2019-02-06T23:20:50.867Z,16.17
2019-02-06T23:23:19.246Z,15.40
2019-02-06T23:25:47.618Z,16.47
2019-02-06T23:28:16.022Z,15.90
2019-02-06T23:30:44.699Z,15.37
2019-02-06T23:33:13.071Z,15.00
2019-02-06T23:35:41.753Z,15.57
2019-02-06T23:38:10.887Z,15.03
2019-02-06T23:40:39.327Z,12.13
2019-02-06T23:43:07.953Z,14.13
2019-02-06T23:45:36.365Z,13.27
2019-02-06T23:48:04.833Z,13.10
2019-02-06T23:50:33.201Z,13.17
2019-02-06T23:53:01.588Z,13.57
2019-02-06T23:55:29.964Z,14.30
2019-02-06T23:57:58.759Z,14.30
